createdAt,value
2023-02-08T00:02:03.774Z,103354.06
2023-02-08T00:04:32.859Z,103358.41
2023-02-08T00:06:59.484Z,103351.38
2023-02-08T00:09:26.108Z,103358.41
2023-02-08T00:11:52.856Z,103361.94
2023-02-08T00:14:19.440Z,103354.03
2023-02-08T00:16:46.090Z,103350.50
2023-02-08T00:19:12.990Z,103353.06
2023-02-08T00:21:42.672Z,103350.50
2023-02-08T00:24:09.434Z,103349.66
2023-02-08T00:26:36.228Z,103348.78
2023-02-08T00:29:03.706Z,103349.66
2023-02-08T00:31:30.516Z,103353.22
2023-02-08T00:33:57.248Z,103348.81
2023-02-08T00:36:23.998Z,103356.75
2023-02-08T00:38:50.815Z,103355.88
2023-02-08T00:41:17.493Z,103359.41
2023-02-08T00:43:44.247Z,103346.25
2023-02-08T00:46:11.200Z,103349.75
2023-02-08T00:48:38.112Z,103352.38
2023-02-08T00:51:10.615Z,103354.19
2023-02-08T00:53:44.501Z,103361.22
2023-02-08T00:56:15.086Z,103355.16
2023-02-08T00:58:44.693Z,103361.25
2023-02-08T01:01:12.349Z,103353.38
2023-02-08T01:03:42.876Z,103361.25
2023-02-08T01:06:15.202Z,103359.47
2023-02-08T01:08:42.266Z,103355.94
2023-02-08T01:11:22.209Z,103347.13
2023-02-08T01:13:50.011Z,103345.38
2023-02-08T01:16:28.902Z,103341.88
2023-02-08T01:19:03.432Z,103347.19
2023-02-08T01:21:37.310Z,103347.22
2023-02-08T01:24:05.411Z,103356.94
2023-02-08T01:26:36.597Z,103360.47
2023-02-08T01:29:05.127Z,103349.03
2023-02-08T01:31:42.861Z,103346.41
2023-02-08T01:34:12.078Z,103337.63
2023-02-08T01:36:41.214Z,103336.75
2023-02-08T01:39:11.033Z,103331.47
2023-02-08T01:41:44.239Z,103335.88
2023-02-08T01:44:13.768Z,103335.00
2023-02-08T01:47:03.685Z,103334.09
2023-02-08T01:49:38.172Z,103326.13
2023-02-08T01:52:23.671Z,103319.06
2023-02-08T01:55:05.927Z,103321.66
2023-02-08T01:57:33.116Z,103319.88
2023-02-08T02:00:22.265Z,103318.97
2023-02-08T02:02:54.960Z,103310.16
2023-02-08T02:05:29.983Z,103312.84
2023-02-08T02:07:58.750Z,103321.63
2023-02-08T02:10:36.631Z,103319.00
2023-02-08T02:13:12.659Z,103312.81
2023-02-08T02:15:42.326Z,103311.03
2023-02-08T02:18:10.632Z,103310.13
2023-02-08T02:21:16.623Z,103301.31
2023-02-08T02:24:33.267Z,103309.22
2023-02-08T02:27:57.006Z,103305.69
2023-02-08T02:31:00.212Z,103304.75
2023-02-08T02:34:04.352Z,103306.50
2023-02-08T02:37:20.738Z,103311.81
2023-02-08T02:40:21.182Z,103305.63
2023-02-08T02:43:37.582Z,103311.72
2023-02-08T02:46:43.984Z,103303.84
2023-02-08T02:49:37.831Z,103300.31
2023-02-08T02:52:41.791Z,103296.94
2023-02-08T02:55:20.169Z,103292.66
2023-02-08T02:57:53.421Z,103297.09
2023-02-08T03:00:27.761Z,103312.13
2023-02-08T03:02:55.640Z,103304.19
2023-02-08T03:05:31.436Z,103313.88
2023-02-08T03:08:30.893Z,103309.47
2023-02-08T03:11:27.849Z,103312.97
2023-02-08T03:14:52.680Z,103309.47
2023-02-08T03:17:59.522Z,103311.28
2023-02-08T03:20:38.788Z,103296.31
2023-02-08T03:23:25.384Z,103291.94
2023-02-08T03:26:35.129Z,103300.72
2023-02-08T03:29:21.709Z,103306.00
2023-02-08T03:32:11.054Z,103301.63
2023-02-08T03:35:02.881Z,103294.59
2023-02-08T03:38:05.595Z,103310.41
2023-02-08T03:40:50.787Z,103305.16
2023-02-08T03:43:33.206Z,103298.97
2023-02-08T03:46:20.993Z,103305.13
2023-02-08T03:49:02.496Z,103299.00
2023-02-08T03:51:34.302Z,103306.88
2023-02-08T03:54:12.947Z,103292.78
2023-02-08T03:57:09.090Z,103290.16
2023-02-08T03:59:54.189Z,103294.56
2023-02-08T04:02:32.721Z,103284.03
2023-02-08T04:05:02.690Z,103286.66
2023-02-08T04:07:29.397Z,103280.47
2023-02-08T04:09:57.286Z,103283.13
2023-02-08T04:12:24.029Z,103283.13
2023-02-08T04:14:50.753Z,103282.25
2023-02-08T04:17:17.446Z,103287.53
2023-02-08T04:19:46.986Z,103282.25
2023-02-08T04:22:13.719Z,103281.41
2023-02-08T04:25:03.703Z,103277.88
2023-02-08T04:27:30.374Z,103279.63
2023-02-08T04:29:59.787Z,103277.84
2023-02-08T04:32:28.997Z,103280.50
2023-02-08T04:34:55.806Z,103288.41
2023-02-08T04:37:25.688Z,103279.63
2023-02-08T04:39:52.336Z,103284.00
2023-02-08T04:42:19.293Z,103288.38
2023-02-08T04:44:46.089Z,103289.25
2023-02-08T04:47:12.851Z,103293.66
2023-02-08T04:49:45.615Z,103299.81
2023-02-08T04:52:12.533Z,103297.13
2023-02-08T04:54:43.962Z,103304.16
2023-02-08T04:57:14.917Z,103312.09
2023-02-08T04:59:44.871Z,103305.88
2023-02-08T05:02:14.606Z,103307.59
2023-02-08T05:04:47.439Z,103311.88
2023-02-08T05:07:14.115Z,103299.59
2023-02-08T05:09:43.892Z,103304.94
2023-02-08T05:12:10.601Z,103310.19
2023-02-08T05:14:37.507Z,103313.72
2023-02-08T05:17:04.228Z,103322.47
2023-02-08T05:19:34.086Z,103308.34
2023-02-08T05:22:00.876Z,103317.03
2023-02-08T05:24:27.509Z,103315.16
2023-02-08T05:26:54.330Z,103322.91
2023-02-08T05:29:20.969Z,103323.69
2023-02-08T05:31:49.009Z,103321.88
2023-02-08T05:34:15.710Z,103313.91
2023-02-08T05:36:43.751Z,103306.00
2023-02-08T05:39:10.317Z,103301.56
2023-02-08T05:41:36.986Z,103298.94
2023-02-08T05:44:03.750Z,103301.53
2023-02-08T05:46:30.619Z,103302.38
2023-02-08T05:48:57.666Z,103295.31
2023-02-08T05:51:24.440Z,103301.47
2023-02-08T05:53:51.185Z,103303.22
2023-02-08T05:56:17.830Z,103290.84
2023-02-08T05:58:44.578Z,103303.09
2023-02-08T06:01:13.756Z,103307.50
2023-02-08T06:03:58.270Z,103297.00
2023-02-08T06:06:24.810Z,103291.75
2023-02-08T06:08:52.932Z,103297.84
2023-02-08T06:11:19.656Z,103309.25
2023-02-08T06:13:48.715Z,103300.53
2023-02-08T06:32:31.747Z,103323.97
2023-02-08T06:45:51.780Z,103329.03
2023-02-08T06:48:18.576Z,103327.34
2023-02-08T06:50:51.587Z,103318.63
2023-02-08T06:53:18.362Z,103321.19
2023-02-08T08:09:07.866Z,103279.59
2023-02-08T08:11:37.680Z,103279.53
2023-02-08T08:14:04.429Z,103279.34
2023-02-08T08:16:31.181Z,103267.66
2023-02-08T08:18:58.061Z,103270.03
2023-02-08T08:21:24.966Z,103264.63
2023-02-08T08:23:52.055Z,103261.81
2023-02-08T08:29:04.654Z,103265.19
2023-02-08T08:31:31.434Z,103267.69
2023-02-08T08:33:58.320Z,103267.38
2023-02-08T08:36:25.117Z,103272.47
2023-02-08T08:38:52.225Z,103266.75
2023-02-08T08:41:19.046Z,103266.44
2023-02-08T08:43:51.817Z,103268.91
2023-02-08T08:46:19.032Z,103272.34
2023-02-08T08:48:54.408Z,103268.88
2023-02-08T08:51:21.155Z,103263.56
2023-02-08T08:53:50.393Z,103267.88
2023-02-08T08:56:17.397Z,103264.06
2023-02-08T08:58:53.308Z,103255.06
2023-02-08T09:01:20.225Z,103255.78
2023-02-08T09:03:50.261Z,103254.56
2023-02-08T09:06:17.450Z,103256.38
2023-02-08T09:08:44.247Z,103247.44
2023-02-08T09:11:17.271Z,103253.53
2023-02-08T09:13:56.053Z,103250.28
2023-02-08T09:16:27.639Z,103256.47
2023-02-08T09:18:54.315Z,103261.94
2023-02-08T09:21:27.038Z,103267.75
2023-02-08T09:23:54.293Z,103269.94
2023-02-08T09:26:22.646Z,103267.91
2023-02-08T09:28:53.235Z,103270.13
2023-02-08T09:31:24.562Z,103275.25
2023-02-08T09:33:55.250Z,103284.94
2023-02-08T09:36:27.248Z,103278.56
2023-02-08T09:39:13.405Z,103292.56
2023-02-08T09:42:23.105Z,103284.97
2023-02-08T09:45:41.334Z,103281.44
2023-02-08T09:48:38.363Z,103276.44
2023-02-08T09:51:43.431Z,103277.16
2023-02-08T09:54:33.453Z,103276.16
2023-02-08T09:57:11.056Z,103270.72
2023-02-08T09:59:57.098Z,103274.88
2023-02-08T10:02:32.793Z,103270.03
2023-02-08T10:05:29.884Z,103268.69
2023-02-08T10:08:01.682Z,103263.94
2023-02-08T10:10:53.910Z,103266.28
2023-02-08T10:13:53.901Z,103266.31
2023-02-08T10:16:54.240Z,103259.88
2023-02-08T10:20:08.544Z,103258.72
2023-02-08T10:23:25.754Z,103267.63
2023-02-08T10:26:28.838Z,103259.66
2023-02-08T10:30:08.729Z,103258.41
2023-02-08T10:33:11.584Z,103253.69
2023-02-08T10:35:57.580Z,103250.09
2023-02-08T10:38:54.010Z,103256.81
2023-02-08T10:41:36.333Z,103247.38
2023-02-08T10:44:39.926Z,103249.69
2023-02-08T10:47:56.397Z,103245.56
2023-02-08T10:50:43.566Z,103236.88
2023-02-08T10:53:17.571Z,103239.47
2023-02-08T10:55:50.525Z,103237.81
2023-02-08T10:58:25.369Z,103228.31
2023-02-08T11:00:57.613Z,103226.69
2023-02-08T11:03:29.286Z,103224.22
2023-02-08T11:05:57.039Z,103225.25
2023-02-08T11:08:29.992Z,103223.38
2023-02-08T11:11:08.900Z,103214.16
2023-02-08T11:13:44.495Z,103223.38
2023-02-08T11:16:23.225Z,103227.03
2023-02-08T11:19:07.755Z,103220.06
2023-02-08T11:24:57.295Z,103209.03
2023-02-08T11:27:42.018Z,103216.50
2023-02-08T11:30:17.508Z,103209.50
2023-02-08T11:33:29.810Z,103210.31
2023-02-08T11:36:08.406Z,103208.34
2023-02-08T11:38:42.553Z,103208.09
2023-02-08T11:41:20.456Z,103195.81
2023-02-08T11:44:08.533Z,103195.81
2023-02-08T11:46:37.403Z,103182.66
2023-02-08T11:49:04.702Z,103183.00
2023-02-08T11:51:37.531Z,103194.28
2023-02-08T11:54:06.398Z,103204.66
2023-02-08T11:56:35.188Z,103192.19
2023-02-08T11:59:21.261Z,103182.66
2023-02-08T12:01:55.184Z,103190.22
2023-02-08T12:04:22.223Z,103197.25
2023-02-08T12:07:45.853Z,103192.75
2023-02-08T12:11:03.403Z,103191.19
2023-02-08T12:14:33.143Z,103178.53
2023-02-08T12:18:02.508Z,103186.72
2023-02-08T12:20:45.332Z,103183.13
2023-02-08T12:23:29.063Z,103183.34
2023-02-08T12:26:27.443Z,103180.31
2023-02-08T12:29:22.462Z,103176.00
2023-02-08T12:32:12.122Z,103177.31
2023-02-08T12:35:39.937Z,103179.31
2023-02-08T12:52:42.443Z,103143.56
2023-02-08T13:22:26.196Z,103119.16
2023-02-08T13:25:07.171Z,103117.13
2023-02-08T13:27:38.639Z,103105.38
2023-02-08T13:30:16.198Z,103100.13
2023-02-08T13:38:32.818Z,103091.16
2023-02-08T13:47:05.565Z,103076.25
2023-02-08T13:50:43.016Z,103076.13
2023-02-08T13:53:11.044Z,103075.94
2023-02-08T13:56:01.892Z,103069.06
2023-02-08T13:59:01.207Z,103068.63
2023-02-08T14:01:36.369Z,103061.00
2023-02-08T14:04:11.772Z,103069.38
2023-02-08T14:07:14.041Z,103061.06
2023-02-08T14:10:09.847Z,103052.41
2023-02-08T14:13:22.732Z,103046.66
2023-02-08T14:16:32.302Z,103036.34
2023-02-08T14:19:15.338Z,103034.13
2023-02-08T14:22:03.893Z,103034.03
2023-02-08T14:24:43.956Z,103035.06
2023-02-08T14:27:44.495Z,103026.50
2023-02-08T14:30:17.183Z,103019.44
2023-02-08T14:33:04.808Z,103015.81
2023-02-08T14:35:37.595Z,103012.09
2023-02-08T14:38:19.571Z,103011.78
2023-02-08T14:41:04.254Z,103004.97
2023-02-08T14:43:34.333Z,103007.72
2023-02-08T14:46:38.827Z,103005.69
2023-02-08T14:49:19.257Z,103007.22
2023-02-08T14:52:12.129Z,103007.34
2023-02-08T14:55:14.152Z,103004.00
2023-02-08T14:57:44.544Z,103005.00
2023-02-08T15:00:36.138Z,102999.91
2023-02-08T15:03:18.475Z,102989.16
2023-02-08T15:06:30.098Z,102985.09
2023-02-08T15:08:58.110Z,102984.19
2023-02-08T15:11:34.235Z,102979.47
2023-02-08T15:14:07.462Z,102973.00
2023-02-08T15:16:43.405Z,102964.16
2023-02-08T15:19:41.495Z,102969.47
2023-02-08T15:22:26.467Z,102957.00
2023-02-08T15:25:24.117Z,102964.75
2023-02-08T15:28:00.881Z,102964.47
2023-02-08T15:30:43.299Z,102956.94
2023-02-08T15:33:17.781Z,102961.78
2023-02-08T15:36:07.290Z,102953.22
2023-02-08T15:38:38.723Z,102946.59
2023-02-08T15:41:12.242Z,102945.81
2023-02-08T15:43:46.307Z,102943.38
2023-02-08T15:46:29.888Z,102952.59
2023-02-08T15:49:03.281Z,102947.41
2023-02-08T15:51:31.764Z,102943.25
2023-02-08T15:53:58.752Z,102940.88
2023-02-08T15:56:41.295Z,102942.78
2023-02-08T15:59:24.712Z,102945.59
2023-02-08T16:01:57.792Z,102949.22
2023-02-08T16:04:26.202Z,102947.41
2023-02-08T16:07:00.639Z,102940.53
2023-02-08T16:09:30.202Z,102942.28
2023-02-08T16:38:10.263Z,102896.13
2023-02-08T16:40:53.641Z,102903.19
2023-02-08T16:43:32.813Z,102909.53
2023-02-08T16:46:11.835Z,102902.75
2023-02-08T16:48:52.121Z,102905.47
2023-02-08T16:51:34.140Z,102899.41
2023-02-08T16:54:11.301Z,102900.44
2023-02-08T16:56:41.330Z,102895.94
2023-02-08T16:59:10.598Z,102897.84
2023-02-08T17:01:38.148Z,102892.69
2023-02-08T17:04:06.414Z,102892.78
2023-02-08T17:06:43.355Z,102890.06
2023-02-08T17:09:13.644Z,102882.00
2023-02-08T17:11:45.181Z,102881.31
2023-02-08T17:14:11.922Z,102883.28
2023-02-08T17:16:44.339Z,102879.03
2023-02-08T17:19:22.481Z,102872.91
2023-02-08T17:24:37.711Z,102868.63
2023-02-08T17:27:05.659Z,102859.63
2023-02-08T17:29:32.433Z,102862.28
2023-02-08T17:32:02.191Z,102857.91
2023-02-08T17:34:29.149Z,102850.91
2023-02-08T17:36:55.749Z,102858.94
2023-02-08T17:39:22.549Z,102842.31
2023-02-08T17:41:55.384Z,102846.81
2023-02-08T17:44:22.006Z,102845.09
2023-02-08T17:46:51.769Z,102847.00
2023-02-08T17:49:18.477Z,102838.88
2023-02-08T17:51:45.261Z,102839.66
2023-02-08T18:13:09.378Z,102818.81
2023-02-08T18:48:06.293Z,102771.50
2023-02-08T18:50:32.910Z,102774.19
2023-02-08T18:52:59.980Z,102759.34
2023-02-08T18:55:26.672Z,102766.22
2023-02-08T18:57:53.583Z,102764.34
2023-02-08T19:00:20.677Z,102751.88
2023-02-08T19:05:30.111Z,102767.03
2023-02-08T19:24:22.001Z,102750.75
2023-02-08T19:26:51.759Z,102744.53
2023-02-08T19:45:35.913Z,102751.00
2023-02-08T19:48:03.085Z,102753.59
2023-02-08T20:06:58.009Z,102728.22
2023-02-08T20:09:24.635Z,102740.59
2023-02-08T20:17:15.204Z,102737.31
2023-02-08T20:30:29.056Z,102718.00
2023-02-08T20:43:55.933Z,102717.25
2023-02-08T20:46:34.628Z,102707.53
2023-02-08T20:54:27.362Z,102706.78
2023-02-08T21:15:52.426Z,102668.84
2023-02-08T21:18:19.063Z,102659.19
2023-02-08T21:20:46.159Z,102657.50
2023-02-08T21:23:13.471Z,102648.75
2023-02-08T21:25:46.231Z,102647.13
2023-02-08T21:28:14.307Z,102644.47
2023-02-08T21:31:10.336Z,102643.63
2023-02-08T21:33:37.130Z,102651.50
2023-02-08T21:36:12.116Z,102642.84
2023-02-08T21:38:38.802Z,102639.28
2023-02-08T21:41:25.276Z,102631.41
2023-02-08T21:43:57.382Z,102635.84
2023-02-08T21:46:28.423Z,102636.63
2023-02-08T21:49:16.434Z,102644.53
2023-02-08T21:52:03.223Z,102631.34
2023-02-08T21:54:45.430Z,102624.31
2023-02-08T21:57:21.600Z,102621.59
2023-02-08T21:59:58.546Z,102626.84
2023-02-08T22:02:30.405Z,102618.88
2023-02-08T22:05:22.261Z,102606.53
2023-02-08T22:07:57.278Z,102622.47
2023-02-08T22:10:32.101Z,102620.00
2023-02-08T22:12:59.690Z,102610.03
2023-02-08T22:15:34.185Z,102603.97
2023-02-08T22:18:03.387Z,102596.94
2023-02-08T22:20:31.068Z,102596.03
2023-02-08T22:22:57.898Z,102604.06
2023-02-08T22:25:24.653Z,102598.75
2023-02-08T22:27:51.730Z,102594.38
2023-02-08T22:30:20.007Z,102587.25
2023-02-08T22:32:51.870Z,102588.25
2023-02-08T22:35:20.106Z,102590.13
2023-02-08T22:37:46.876Z,102588.50
2023-02-08T22:40:13.536Z,102588.41
2023-02-08T22:42:44.042Z,102582.97
2023-02-08T22:45:17.127Z,102585.69
2023-02-08T22:47:57.369Z,102577.84
2023-02-08T22:50:24.018Z,102574.28
2023-02-08T22:52:50.744Z,102564.66
2023-02-08T22:55:17.402Z,102565.59
2023-02-08T22:57:44.225Z,102559.56
2023-02-08T23:00:15.999Z,102550.63
2023-02-08T23:02:43.265Z,102552.41
2023-02-08T23:05:15.902Z,102557.63
2023-02-08T23:07:47.457Z,102560.41
2023-02-08T23:10:23.113Z,102561.41
2023-02-08T23:12:50.095Z,102553.63
2023-02-08T23:15:17.042Z,102552.63
2023-02-08T23:17:43.862Z,102543.97
2023-02-08T23:20:17.042Z,102538.66
2023-02-08T23:22:46.646Z,102537.00
2023-02-08T23:25:16.446Z,102542.19
2023-02-08T23:27:43.520Z,102535.16
2023-02-08T23:30:13.560Z,102530.41
2023-02-08T23:32:43.726Z,102530.53
2023-02-08T23:35:13.182Z,102524.47
2023-02-08T23:37:43.560Z,102528.06
2023-02-08T23:40:16.868Z,102530.72
2023-02-08T23:42:43.648Z,102523.78
2023-02-08T23:45:13.858Z,102512.44
2023-02-08T23:47:45.872Z,102514.22
2023-02-08T23:50:12.596Z,102522.94
2023-02-08T23:52:44.459Z,102516.88
2023-02-08T23:55:12.728Z,102516.94
2023-02-08T23:57:42.017Z,102508.03
